sensor_id;sensor_type;location;lat;lon;timestamp;P1;durP1;ratioP1;P2;durP2;ratioP2
11034;SDS011;5571;48.110;-1.706;2023-04-24T00:02:20;11.30;;;5.10;;
11034;SDS011;5571;48.110;-1.706;2023-04-24T00:04:46;9.10;;;3.77;;
11034;SDS011;5571;48.110;-1.706;2023-04-24T00:07:13;7.90;;;3.50;;
11034;SDS011;5571;48.110;-1.706;2023-04-24T00:09:42;9.47;;;3.57;;
11034;SDS011;5571;48.110;-1.706;2023-04-24T00:12:08;15.97;;;6.03;;
11034;SDS011;5571;48.110;-1.706;2023-04-24T00:14:34;6.27;;;3.70;;
11034;SDS011;5571;48.110;-1.706;2023-04-24T00:17:00;8.00;;;3.77;;
11034;SDS011;5571;48.110;-1.706;2023-04-24T00:19:27;15.70;;;5.10;;
11034;SDS011;5571;48.110;-1.706;2023-04-24T00:21:53;8.30;;;4.50;;
11034;SDS011;5571;48.110;-1.706;2023-04-24T00:24:19;7.00;;;3.40;;
11034;SDS011;5571;48.110;-1.706;2023-04-24T00:26:46;10.00;;;3.83;;
11034;SDS011;5571;48.110;-1.706;2023-04-24T00:29:12;6.60;;;3.33;;
11034;SDS011;5571;48.110;-1.706;2023-04-24T00:31:38;6.20;;;3.30;;
11034;SDS011;5571;48.110;-1.706;2023-04-24T00:34:03;14.20;;;4.17;;
11034;SDS011;5571;48.110;-1.706;2023-04-24T00:36:29;7.13;;;3.40;;
11034;SDS011;5571;48.110;-1.706;2023-04-24T00:38:56;7.30;;;3.70;;
11034;SDS011;5571;48.110;-1.706;2023-04-24T00:41:24;10.60;;;3.50;;
11034;SDS011;5571;48.110;-1.706;2023-04-24T00:43:51;6.70;;;3.30;;
11034;SDS011;5571;48.110;-1.706;2023-04-24T00:46:17;12.00;;;3.60;;
11034;SDS011;5571;48.110;-1.706;2023-04-24T00:48:43;7.27;;;3.70;;
11034;SDS011;5571;48.110;-1.706;2023-04-24T00:51:09;16.80;;;8.53;;
11034;SDS011;5571;48.110;-1.706;2023-04-24T00:53:35;12.27;;;5.37;;
11034;SDS011;5571;48.110;-1.706;2023-04-24T00:56:01;9.37;;;3.70;;
11034;SDS011;5571;48.110;-1.706;2023-04-24T00:58:27;8.03;;;3.30;;
11034;SDS011;5571;48.110;-1.706;2023-04-24T01:00:54;9.83;;;3.90;;
11034;SDS011;5571;48.110;-1.706;2023-04-24T01:03:20;16.87;;;7.90;;
11034;SDS011;5571;48.110;-1.706;2023-04-24T01:05:49;9.43;;;3.73;;
11034;SDS011;5571;48.110;-1.706;2023-04-24T01:08:15;9.87;;;3.60;;
11034;SDS011;5571;48.110;-1.706;2023-04-24T01:10:41;8.77;;;3.93;;
11034;SDS011;5571;48.110;-1.706;2023-04-24T01:13:08;12.20;;;3.93;;
11034;SDS011;5571;48.110;-1.706;2023-04-24T01:15:34;7.20;;;4.33;;
11034;SDS011;5571;48.110;-1.706;2023-04-24T01:18:00;9.43;;;4.03;;
11034;SDS011;5571;48.110;-1.706;2023-04-24T01:20:26;9.00;;;3.97;;
11034;SDS011;5571;48.110;-1.706;2023-04-24T01:22:54;12.93;;;4.07;;
11034;SDS011;5571;48.110;-1.706;2023-04-24T01:25:21;8.40;;;3.53;;
11034;SDS011;5571;48.110;-1.706;2023-04-24T01:27:47;10.27;;;4.10;;
11034;SDS011;5571;48.110;-1.706;2023-04-24T01:30:13;9.57;;;3.70;;
11034;SDS011;5571;48.110;-1.706;2023-04-24T01:32:38;10.80;;;3.50;;
11034;SDS011;5571;48.110;-1.706;2023-04-24T01:35:06;7.60;;;3.80;;
11034;SDS011;5571;48.110;-1.706;2023-04-24T01:37:32;6.77;;;3.50;;
11034;SDS011;5571;48.110;-1.706;2023-04-24T01:39:58;6.90;;;3.90;;
11034;SDS011;5571;48.110;-1.706;2023-04-24T01:42:24;14.00;;;4.10;;
11034;SDS011;5571;48.110;-1.706;2023-04-24T01:44:50;10.03;;;4.10;;
11034;SDS011;5571;48.110;-1.706;2023-04-24T01:47:16;11.60;;;4.00;;
11034;SDS011;5571;48.110;-1.706;2023-04-24T01:49:42;11.83;;;4.40;;
11034;SDS011;5571;48.110;-1.706;2023-04-24T01:52:07;7.13;;;3.37;;
11034;SDS011;5571;48.110;-1.706;2023-04-24T01:54:33;17.73;;;4.10;;
11034;SDS011;5571;48.110;-1.706;2023-04-24T01:56:59;14.77;;;4.20;;
11034;SDS011;5571;48.110;-1.706;2023-04-24T01:59:26;9.43;;;3.67;;
11034;SDS011;5571;48.110;-1.706;2023-04-24T02:01:53;8.13;;;3.80;;
11034;SDS011;5571;48.110;-1.706;2023-04-24T02:04:19;8.27;;;3.60;;
11034;SDS011;5571;48.110;-1.706;2023-04-24T02:06:44;10.70;;;3.80;;
11034;SDS011;5571;48.110;-1.706;2023-04-24T02:09:10;12.73;;;4.40;;
11034;SDS011;5571;48.110;-1.706;2023-04-24T02:11:36;10.00;;;3.77;;
11034;SDS011;5571;48.110;-1.706;2023-04-24T02:14:01;10.23;;;3.83;;
11034;SDS011;5571;48.110;-1.706;2023-04-24T02:16:28;10.53;;;3.90;;
11034;SDS011;5571;48.110;-1.706;2023-04-24T02:18:57;8.03;;;4.00;;
11034;SDS011;5571;48.110;-1.706;2023-04-24T02:21:23;9.73;;;3.87;;
11034;SDS011;5571;48.110;-1.706;2023-04-24T02:23:49;11.37;;;3.90;;
11034;SDS011;5571;48.110;-1.706;2023-04-24T02:26:14;15.07;;;4.17;;
11034;SDS011;5571;48.110;-1.706;2023-04-24T02:28:40;8.07;;;3.87;;
11034;SDS011;5571;48.110;-1.706;2023-04-24T02:31:06;7.93;;;3.60;;
11034;SDS011;5571;48.110;-1.706;2023-04-24T02:33:31;6.40;;;3.50;;
11034;SDS011;5571;48.110;-1.706;2023-04-24T02:35:57;8.83;;;3.50;;
11034;SDS011;5571;48.110;-1.706;2023-04-24T02:38:22;7.07;;;3.87;;
11034;SDS011;5571;48.110;-1.706;2023-04-24T02:40:48;14.07;;;3.97;;
11034;SDS011;5571;48.110;-1.706;2023-04-24T02:43:14;9.97;;;3.57;;
11034;SDS011;5571;48.110;-1.706;2023-04-24T02:45:39;9.50;;;3.67;;
11034;SDS011;5571;48.110;-1.706;2023-04-24T02:48:05;10.17;;;3.30;;
11034;SDS011;5571;48.110;-1.706;2023-04-24T02:50:30;8.30;;;3.53;;
11034;SDS011;5571;48.110;-1.706;2023-04-24T02:52:57;8.47;;;4.13;;
11034;SDS011;5571;48.110;-1.706;2023-04-24T02:55:22;7.13;;;3.40;;
11034;SDS011;5571;48.110;-1.706;2023-04-24T02:57:48;10.57;;;3.63;;
11034;SDS011;5571;48.110;-1.706;2023-04-24T03:00:13;9.77;;;3.67;;
11034;SDS011;5571;48.110;-1.706;2023-04-24T03:02:39;14.90;;;4.20;;
11034;SDS011;5571;48.110;-1.706;2023-04-24T03:05:05;7.80;;;3.17;;
11034;SDS011;5571;48.110;-1.706;2023-04-24T03:07:31;7.87;;;3.57;;
11034;SDS011;5571;48.110;-1.706;2023-04-24T03:09:57;11.60;;;3.03;;
11034;SDS011;5571;48.110;-1.706;2023-04-24T03:12:23;15.43;;;3.70;;
11034;SDS011;5571;48.110;-1.706;2023-04-24T03:14:49;5.87;;;3.50;;
11034;SDS011;5571;48.110;-1.706;2023-04-24T03:17:14;13.97;;;3.70;;
11034;SDS011;5571;48.110;-1.706;2023-04-24T03:19:40;6.57;;;3.27;;
11034;SDS011;5571;48.110;-1.706;2023-04-24T03:22:06;9.97;;;3.37;;
11034;SDS011;5571;48.110;-1.706;2023-04-24T03:24:34;11.67;;;3.40;;
11034;SDS011;5571;48.110;-1.706;2023-04-24T03:26:59;10.43;;;3.30;;
11034;SDS011;5571;48.110;-1.706;2023-04-24T03:29:25;9.63;;;3.83;;
11034;SDS011;5571;48.110;-1.706;2023-04-24T03:31:50;7.40;;;3.27;;
11034;SDS011;5571;48.110;-1.706;2023-04-24T03:34:16;8.23;;;3.37;;
11034;SDS011;5571;48.110;-1.706;2023-04-24T03:36:42;12.43;;;3.77;;
11034;SDS011;5571;48.110;-1.706;2023-04-24T03:39:07;15.13;;;5.33;;
11034;SDS011;5571;48.110;-1.706;2023-04-24T03:41:33;14.80;;;6.17;;
11034;SDS011;5571;48.110;-1.706;2023-04-24T03:43:58;8.00;;;4.20;;
11034;SDS011;5571;48.110;-1.706;2023-04-24T03:46:25;9.43;;;3.40;;
11034;SDS011;5571;48.110;-1.706;2023-04-24T03:48:50;6.70;;;3.73;;
11034;SDS011;5571;48.110;-1.706;2023-04-24T03:51:16;7.87;;;3.70;;
11034;SDS011;5571;48.110;-1.706;2023-04-24T03:53:41;10.53;;;3.57;;
11034;SDS011;5571;48.110;-1.706;2023-04-24T03:56:07;8.73;;;3.40;;
11034;SDS011;5571;48.110;-1.706;2023-04-24T03:58:33;10.27;;;3.63;;
11034;SDS011;5571;48.110;-1.706;2023-04-24T04:00:58;9.87;;;3.07;;
11034;SDS011;5571;48.110;-1.706;2023-04-24T04:03:25;7.90;;;3.37;;
11034;SDS011;5571;48.110;-1.706;2023-04-24T04:05:50;8.60;;;3.10;;
11034;SDS011;5571;48.110;-1.706;2023-04-24T04:08:16;12.13;;;3.60;;
11034;SDS011;5571;48.110;-1.706;2023-04-24T04:10:42;5.27;;;3.20;;
11034;SDS011;5571;48.110;-1.706;2023-04-24T04:13:07;9.47;;;3.50;;
11034;SDS011;5571;48.110;-1.706;2023-04-24T04:15:33;8.63;;;3.40;;
11034;SDS011;5571;48.110;-1.706;2023-04-24T04:17:59;8.13;;;3.20;;
11034;SDS011;5571;48.110;-1.706;2023-04-24T04:20:24;9.53;;;3.30;;
11034;SDS011;5571;48.110;-1.706;2023-04-24T04:22:50;11.90;;;3.50;;
11034;SDS011;5571;48.110;-1.706;2023-04-24T04:25:15;11.47;;;3.20;;
11034;SDS011;5571;48.110;-1.706;2023-04-24T04:27:44;14.23;;;3.67;;
11034;SDS011;5571;48.110;-1.706;2023-04-24T04:30:10;10.87;;;3.17;;
11034;SDS011;5571;48.110;-1.706;2023-04-24T04:32:36;6.37;;;3.27;;
11034;SDS011;5571;48.110;-1.706;2023-04-24T04:35:02;9.30;;;3.37;;
11034;SDS011;5571;48.110;-1.706;2023-04-24T04:37:30;10.80;;;3.60;;
11034;SDS011;5571;48.110;-1.706;2023-04-24T04:39:56;10.17;;;3.50;;
11034;SDS011;5571;48.110;-1.706;2023-04-24T04:42:23;7.10;;;3.43;;
11034;SDS011;5571;48.110;-1.706;2023-04-24T04:44:49;9.37;;;3.20;;
11034;SDS011;5571;48.110;-1.706;2023-04-24T04:47:15;7.27;;;3.63;;
11034;SDS011;5571;48.110;-1.706;2023-04-24T04:49:42;8.70;;;3.67;;
11034;SDS011;5571;48.110;-1.706;2023-04-24T04:52:08;9.50;;;3.47;;
11034;SDS011;5571;48.110;-1.706;2023-04-24T04:54:34;10.17;;;3.33;;
11034;SDS011;5571;48.110;-1.706;2023-04-24T04:57:00;6.63;;;3.23;;
11034;SDS011;5571;48.110;-1.706;2023-04-24T04:59:26;9.00;;;3.37;;
11034;SDS011;5571;48.110;-1.706;2023-04-24T05:01:52;11.90;;;3.90;;
11034;SDS011;5571;48.110;-1.706;2023-04-24T05:04:18;7.67;;;3.00;;
11034;SDS011;5571;48.110;-1.706;2023-04-24T05:06:43;9.93;;;3.07;;
11034;SDS011;5571;48.110;-1.706;2023-04-24T05:09:09;7.40;;;3.30;;
11034;SDS011;5571;48.110;-1.706;2023-04-24T05:11:35;7.37;;;3.27;;
11034;SDS011;5571;48.110;-1.706;2023-04-24T05:14:01;7.23;;;3.37;;
11034;SDS011;5571;48.110;-1.706;2023-04-24T05:16:26;4.93;;;2.60;;
11034;SDS011;5571;48.110;-1.706;2023-04-24T05:18:52;7.50;;;3.50;;
11034;SDS011;5571;48.110;-1.706;2023-04-24T05:21:19;6.47;;;3.57;;
11034;SDS011;5571;48.110;-1.706;2023-04-24T05:23:45;11.17;;;3.93;;
11034;SDS011;5571;48.110;-1.706;2023-04-24T05:26:10;7.23;;;3.20;;
11034;SDS011;5571;48.110;-1.706;2023-04-24T05:28:36;9.77;;;3.73;;
11034;SDS011;5571;48.110;-1.706;2023-04-24T05:31:02;5.63;;;3.37;;
11034;SDS011;5571;48.110;-1.706;2023-04-24T05:33:28;7.23;;;3.30;;
11034;SDS011;5571;48.110;-1.706;2023-04-24T05:35:54;5.93;;;3.17;;
11034;SDS011;5571;48.110;-1.706;2023-04-24T05:38:19;6.50;;;3.10;;
11034;SDS011;5571;48.110;-1.706;2023-04-24T05:40:46;8.67;;;3.10;;
11034;SDS011;5571;48.110;-1.706;2023-04-24T05:43:12;5.60;;;3.27;;
11034;SDS011;5571;48.110;-1.706;2023-04-24T05:45:38;12.10;;;3.73;;
11034;SDS011;5571;48.110;-1.706;2023-04-24T05:48:03;13.83;;;3.23;;
11034;SDS011;5571;48.110;-1.706;2023-04-24T05:50:29;7.73;;;3.10;;
11034;SDS011;5571;48.110;-1.706;2023-04-24T05:52:55;9.37;;;3.70;;
11034;SDS011;5571;48.110;-1.706;2023-04-24T05:55:23;8.33;;;3.80;;
11034;SDS011;5571;48.110;-1.706;2023-04-24T05:57:50;9.53;;;3.33;;
11034;SDS011;5571;48.110;-1.706;2023-04-24T06:00:15;9.50;;;3.70;;
11034;SDS011;5571;48.110;-1.706;2023-04-24T06:02:42;7.30;;;3.70;;
11034;SDS011;5571;48.110;-1.706;2023-04-24T06:05:08;8.60;;;3.20;;
11034;SDS011;5571;48.110;-1.706;2023-04-24T06:07:34;9.20;;;3.33;;
11034;SDS011;5571;48.110;-1.706;2023-04-24T06:10:00;9.67;;;3.50;;
11034;SDS011;5571;48.110;-1.706;2023-04-24T06:12:26;11.47;;;3.83;;
11034;SDS011;5571;48.110;-1.706;2023-04-24T06:14:52;8.67;;;3.40;;
11034;SDS011;5571;48.110;-1.706;2023-04-24T06:17:19;9.90;;;3.27;;
11034;SDS011;5571;48.110;-1.706;2023-04-24T06:19:44;7.83;;;3.27;;
11034;SDS011;5571;48.110;-1.706;2023-04-24T06:22:10;9.50;;;3.83;;
11034;SDS011;5571;48.110;-1.706;2023-04-24T06:24:36;11.50;;;3.57;;
11034;SDS011;5571;48.110;-1.706;2023-04-24T06:27:01;11.17;;;3.80;;
11034;SDS011;5571;48.110;-1.706;2023-04-24T06:29:27;9.40;;;3.17;;
11034;SDS011;5571;48.110;-1.706;2023-04-24T06:31:53;7.77;;;3.43;;
11034;SDS011;5571;48.110;-1.706;2023-04-24T06:34:18;9.10;;;3.60;;
11034;SDS011;5571;48.110;-1.706;2023-04-24T06:36:44;7.63;;;3.57;;
11034;SDS011;5571;48.110;-1.706;2023-04-24T06:39:11;8.63;;;3.20;;
11034;SDS011;5571;48.110;-1.706;2023-04-24T06:41:37;9.13;;;3.20;;
11034;SDS011;5571;48.110;-1.706;2023-04-24T06:44:02;7.87;;;3.17;;
11034;SDS011;5571;48.110;-1.706;2023-04-24T06:46:28;11.40;;;3.63;;
11034;SDS011;5571;48.110;-1.706;2023-04-24T06:48:54;4.80;;;3.30;;
11034;SDS011;5571;48.110;-1.706;2023-04-24T06:51:23;7.43;;;3.00;;
11034;SDS011;5571;48.110;-1.706;2023-04-24T06:53:49;7.60;;;3.10;;
11034;SDS011;5571;48.110;-1.706;2023-04-24T06:56:16;10.07;;;3.33;;
11034;SDS011;5571;48.110;-1.706;2023-04-24T06:58:42;6.87;;;3.03;;
11034;SDS011;5571;48.110;-1.706;2023-04-24T07:01:08;6.83;;;2.83;;
11034;SDS011;5571;48.110;-1.706;2023-04-24T07:03:34;7.37;;;3.20;;
11034;SDS011;5571;48.110;-1.706;2023-04-24T07:06:00;5.47;;;3.40;;
11034;SDS011;5571;48.110;-1.706;2023-04-24T07:08:26;4.67;;;3.07;;
11034;SDS011;5571;48.110;-1.706;2023-04-24T07:10:51;4.53;;;2.47;;
11034;SDS011;5571;48.110;-1.706;2023-04-24T07:13:17;10.27;;;3.10;;
11034;SDS011;5571;48.110;-1.706;2023-04-24T07:15:43;7.87;;;3.20;;
11034;SDS011;5571;48.110;-1.706;2023-04-24T07:18:08;5.73;;;3.20;;
11034;SDS011;5571;48.110;-1.706;2023-04-24T07:20:35;6.77;;;3.00;;
11034;SDS011;5571;48.110;-1.706;2023-04-24T07:23:00;6.77;;;2.83;;
11034;SDS011;5571;48.110;-1.706;2023-04-24T07:25:27;5.03;;;2.70;;
11034;SDS011;5571;48.110;-1.706;2023-04-24T07:27:52;5.20;;;2.67;;
11034;SDS011;5571;48.110;-1.706;2023-04-24T07:30:19;7.87;;;3.00;;
11034;SDS011;5571;48.110;-1.706;2023-04-24T07:32:45;8.30;;;3.37;;
11034;SDS011;5571;48.110;-1.706;2023-04-24T07:35:10;8.43;;;2.63;;
11034;SDS011;5571;48.110;-1.706;2023-04-24T07:37:36;7.43;;;2.87;;
11034;SDS011;5571;48.110;-1.706;2023-04-24T07:40:02;3.20;;;2.50;;
11034;SDS011;5571;48.110;-1.706;2023-04-24T07:42:28;6.67;;;3.10;;
11034;SDS011;5571;48.110;-1.706;2023-04-24T07:44:55;5.20;;;3.30;;
11034;SDS011;5571;48.110;-1.706;2023-04-24T07:47:21;6.40;;;2.90;;
11034;SDS011;5571;48.110;-1.706;2023-04-24T07:49:47;5.13;;;2.80;;
11034;SDS011;5571;48.110;-1.706;2023-04-24T07:52:12;5.67;;;3.13;;
11034;SDS011;5571;48.110;-1.706;2023-04-24T07:54:38;7.67;;;3.07;;
11034;SDS011;5571;48.110;-1.706;2023-04-24T07:57:04;6.63;;;2.90;;
11034;SDS011;5571;48.110;-1.706;2023-04-24T07:59:31;4.40;;;2.70;;
11034;SDS011;5571;48.110;-1.706;2023-04-24T08:01:57;5.07;;;2.60;;
11034;SDS011;5571;48.110;-1.706;2023-04-24T08:04:22;6.57;;;2.70;;
11034;SDS011;5571;48.110;-1.706;2023-04-24T08:06:48;7.97;;;2.90;;
11034;SDS011;5571;48.110;-1.706;2023-04-24T08:09:14;5.30;;;3.00;;
11034;SDS011;5571;48.110;-1.706;2023-04-24T08:11:39;3.77;;;2.60;;
11034;SDS011;5571;48.110;-1.706;2023-04-24T08:14:05;4.07;;;2.70;;
11034;SDS011;5571;48.110;-1.706;2023-04-24T08:16:32;5.47;;;2.70;;
11034;SDS011;5571;48.110;-1.706;2023-04-24T08:18:58;6.73;;;2.57;;
11034;SDS011;5571;48.110;-1.706;2023-04-24T08:21:24;13.77;;;3.27;;
11034;SDS011;5571;48.110;-1.706;2023-04-24T08:23:52;6.80;;;3.00;;
11034;SDS011;5571;48.110;-1.706;2023-04-24T08:26:17;7.30;;;3.03;;
11034;SDS011;5571;48.110;-1.706;2023-04-24T08:28:43;7.70;;;3.17;;
11034;SDS011;5571;48.110;-1.706;2023-04-24T08:31:09;5.67;;;3.00;;
11034;SDS011;5571;48.110;-1.706;2023-04-24T08:33:35;4.63;;;2.90;;
11034;SDS011;5571;48.110;-1.706;2023-04-24T08:36:02;8.77;;;2.90;;
11034;SDS011;5571;48.110;-1.706;2023-04-24T08:38:28;3.37;;;2.80;;
11034;SDS011;5571;48.110;-1.706;2023-04-24T08:40:54;4.33;;;2.80;;
11034;SDS011;5571;48.110;-1.706;2023-04-24T08:43:23;4.10;;;3.17;;
11034;SDS011;5571;48.110;-1.706;2023-04-24T08:45:51;6.93;;;3.10;;
11034;SDS011;5571;48.110;-1.706;2023-04-24T08:48:17;5.07;;;2.70;;
11034;SDS011;5571;48.110;-1.706;2023-04-24T08:50:43;6.20;;;2.87;;
11034;SDS011;5571;48.110;-1.706;2023-04-24T08:53:10;8.27;;;2.80;;
11034;SDS011;5571;48.110;-1.706;2023-04-24T08:55:36;5.20;;;2.30;;
11034;SDS011;5571;48.110;-1.706;2023-04-24T08:58:03;5.37;;;2.37;;
11034;SDS011;5571;48.110;-1.706;2023-04-24T09:00:29;7.07;;;2.13;;
11034;SDS011;5571;48.110;-1.706;2023-04-24T09:02:55;3.53;;;2.00;;
11034;SDS011;5571;48.110;-1.706;2023-04-24T09:05:22;8.47;;;2.53;;
11034;SDS011;5571;48.110;-1.706;2023-04-24T09:07:55;5.00;;;2.70;;
11034;SDS011;5571;48.110;-1.706;2023-04-24T09:10:24;7.37;;;2.67;;
11034;SDS011;5571;48.110;-1.706;2023-04-24T09:12:50;6.13;;;2.40;;
11034;SDS011;5571;48.110;-1.706;2023-04-24T09:15:18;7.30;;;2.60;;
11034;SDS011;5571;48.110;-1.706;2023-04-24T09:17:45;6.37;;;2.67;;
11034;SDS011;5571;48.110;-1.706;2023-04-24T09:20:11;8.03;;;2.53;;
11034;SDS011;5571;48.110;-1.706;2023-04-24T09:22:36;8.00;;;2.40;;
11034;SDS011;5571;48.110;-1.706;2023-04-24T09:25:06;6.37;;;2.70;;
11034;SDS011;5571;48.110;-1.706;2023-04-24T09:27:34;6.80;;;2.37;;
11034;SDS011;5571;48.110;-1.706;2023-04-24T09:30:00;9.77;;;2.83;;
11034;SDS011;5571;48.110;-1.706;2023-04-24T09:32:28;5.93;;;2.30;;
11034;SDS011;5571;48.110;-1.706;2023-04-24T09:35:05;6.77;;;2.43;;
11034;SDS011;5571;48.110;-1.706;2023-04-24T09:37:35;7.17;;;2.87;;
11034;SDS011;5571;48.110;-1.706;2023-04-24T09:42:55;8.43;;;2.70;;
11034;SDS011;5571;48.110;-1.706;2023-04-24T09:45:35;7.77;;;3.07;;
11034;SDS011;5571;48.110;-1.706;2023-04-24T09:48:02;5.83;;;2.33;;
11034;SDS011;5571;48.110;-1.706;2023-04-24T09:50:29;7.23;;;2.60;;
11034;SDS011;5571;48.110;-1.706;2023-04-24T09:53:01;8.43;;;2.97;;
11034;SDS011;5571;48.110;-1.706;2023-04-24T09:55:29;13.77;;;3.07;;
11034;SDS011;5571;48.110;-1.706;2023-04-24T09:57:59;10.53;;;3.07;;
11034;SDS011;5571;48.110;-1.706;2023-04-24T10:03:02;10.20;;;2.40;;
11034;SDS011;5571;48.110;-1.706;2023-04-24T10:05:32;12.90;;;2.67;;
11034;SDS011;5571;48.110;-1.706;2023-04-24T10:08:06;10.50;;;2.50;;
11034;SDS011;5571;48.110;-1.706;2023-04-24T10:10:34;7.80;;;2.80;;
11034;SDS011;5571;48.110;-1.706;2023-04-24T10:13:03;8.43;;;2.63;;
11034;SDS011;5571;48.110;-1.706;2023-04-24T10:15:29;8.57;;;3.00;;
11034;SDS011;5571;48.110;-1.706;2023-04-24T10:17:55;6.20;;;2.67;;
11034;SDS011;5571;48.110;-1.706;2023-04-24T10:20:24;6.87;;;2.70;;
11034;SDS011;5571;48.110;-1.706;2023-04-24T10:22:52;7.43;;;2.77;;
11034;SDS011;5571;48.110;-1.706;2023-04-24T10:25:22;7.50;;;2.50;;
11034;SDS011;5571;48.110;-1.706;2023-04-24T10:27:49;9.03;;;2.53;;
11034;SDS011;5571;48.110;-1.706;2023-04-24T10:30:16;6.17;;;2.40;;
11034;SDS011;5571;48.110;-1.706;2023-04-24T10:32:43;7.83;;;2.47;;
11034;SDS011;5571;48.110;-1.706;2023-04-24T10:35:09;8.93;;;2.97;;
11034;SDS011;5571;48.110;-1.706;2023-04-24T10:37:38;8.30;;;2.97;;
11034;SDS011;5571;48.110;-1.706;2023-04-24T10:40:30;10.53;;;3.27;;
11034;SDS011;5571;48.110;-1.706;2023-04-24T10:42:57;6.93;;;3.23;;
11034;SDS011;5571;48.110;-1.706;2023-04-24T10:45:23;11.73;;;3.27;;
11034;SDS011;5571;48.110;-1.706;2023-04-24T10:50:34;10.63;;;2.90;;
11034;SDS011;5571;48.110;-1.706;2023-04-24T10:53:14;6.97;;;3.10;;
11034;SDS011;5571;48.110;-1.706;2023-04-24T10:55:46;9.20;;;3.00;;
11034;SDS011;5571;48.110;-1.706;2023-04-24T10:58:12;8.53;;;2.60;;
11034;SDS011;5571;48.110;-1.706;2023-04-24T11:00:38;11.43;;;3.10;;
11034;SDS011;5571;48.110;-1.706;2023-04-24T11:05:51;8.83;;;3.47;;
11034;SDS011;5571;48.110;-1.706;2023-04-24T11:21:31;8.17;;;2.93;;
11034;SDS011;5571;48.110;-1.706;2023-04-24T11:26:47;11.90;;;2.97;;
11034;SDS011;5571;48.110;-1.706;2023-04-24T11:29:13;7.40;;;2.93;;
11034;SDS011;5571;48.110;-1.706;2023-04-24T11:31:40;11.13;;;3.00;;
11034;SDS011;5571;48.110;-1.706;2023-04-24T11:34:10;14.40;;;3.20;;
11034;SDS011;5571;48.110;-1.706;2023-04-24T11:36:38;9.33;;;3.07;;
11034;SDS011;5571;48.110;-1.706;2023-04-24T11:39:04;10.77;;;3.10;;
11034;SDS011;5571;48.110;-1.706;2023-04-24T11:41:30;7.93;;;3.10;;
11034;SDS011;5571;48.110;-1.706;2023-04-24T11:43:56;11.47;;;3.70;;
11034;SDS011;5571;48.110;-1.706;2023-04-24T11:46:22;8.23;;;2.70;;
11034;SDS011;5571;48.110;-1.706;2023-04-24T11:48:53;9.90;;;2.90;;
11034;SDS011;5571;48.110;-1.706;2023-04-24T11:51:18;8.77;;;2.60;;
11034;SDS011;5571;48.110;-1.706;2023-04-24T11:53:44;6.77;;;2.60;;
11034;SDS011;5571;48.110;-1.706;2023-04-24T11:56:10;5.03;;;2.27;;
11034;SDS011;5571;48.110;-1.706;2023-04-24T11:58:36;4.07;;;2.40;;
11034;SDS011;5571;48.110;-1.706;2023-04-24T12:01:05;6.53;;;2.50;;
11034;SDS011;5571;48.110;-1.706;2023-04-24T12:03:31;8.10;;;2.67;;
11034;SDS011;5571;48.110;-1.706;2023-04-24T12:06:06;8.77;;;2.73;;
11034;SDS011;5571;48.110;-1.706;2023-04-24T12:08:33;5.17;;;2.57;;
11034;SDS011;5571;48.110;-1.706;2023-04-24T12:11:02;10.33;;;2.80;;
11034;SDS011;5571;48.110;-1.706;2023-04-24T12:13:29;8.50;;;2.40;;
11034;SDS011;5571;48.110;-1.706;2023-04-24T12:15:58;11.47;;;2.67;;
11034;SDS011;5571;48.110;-1.706;2023-04-24T12:18:25;6.30;;;2.43;;
11034;SDS011;5571;48.110;-1.706;2023-04-24T12:20:51;4.83;;;1.93;;
11034;SDS011;5571;48.110;-1.706;2023-04-24T12:23:28;6.47;;;2.60;;
11034;SDS011;5571;48.110;-1.706;2023-04-24T12:26:04;11.77;;;2.70;;
11034;SDS011;5571;48.110;-1.706;2023-04-24T12:28:36;10.03;;;2.30;;
11034;SDS011;5571;48.110;-1.706;2023-04-24T12:31:03;5.47;;;2.57;;
11034;SDS011;5571;48.110;-1.706;2023-04-24T12:33:34;6.40;;;2.43;;
11034;SDS011;5571;48.110;-1.706;2023-04-24T12:36:00;7.67;;;2.30;;
11034;SDS011;5571;48.110;-1.706;2023-04-24T12:38:27;7.97;;;2.43;;
11034;SDS011;5571;48.110;-1.706;2023-04-24T12:41:01;6.97;;;2.40;;
11034;SDS011;5571;48.110;-1.706;2023-04-24T12:43:29;10.87;;;2.40;;
11034;SDS011;5571;48.110;-1.706;2023-04-24T12:45:55;6.93;;;2.70;;
11034;SDS011;5571;48.110;-1.706;2023-04-24T12:48:20;7.50;;;2.53;;
11034;SDS011;5571;48.110;-1.706;2023-04-24T12:50:47;5.53;;;2.47;;
11034;SDS011;5571;48.110;-1.706;2023-04-24T12:53:12;5.60;;;2.60;;
11034;SDS011;5571;48.110;-1.706;2023-04-24T12:55:39;7.17;;;2.40;;
11034;SDS011;5571;48.110;-1.706;2023-04-24T12:58:05;5.10;;;2.07;;
11034;SDS011;5571;48.110;-1.706;2023-04-24T13:00:30;4.30;;;2.37;;
11034;SDS011;5571;48.110;-1.706;2023-04-24T13:02:56;5.93;;;2.50;;
11034;SDS011;5571;48.110;-1.706;2023-04-24T13:05:22;6.80;;;2.70;;
11034;SDS011;5571;48.110;-1.706;2023-04-24T13:07:47;8.70;;;2.60;;
11034;SDS011;5571;48.110;-1.706;2023-04-24T13:10:13;8.07;;;2.63;;
11034;SDS011;5571;48.110;-1.706;2023-04-24T13:12:39;4.77;;;2.20;;
11034;SDS011;5571;48.110;-1.706;2023-04-24T13:15:05;7.70;;;2.53;;
11034;SDS011;5571;48.110;-1.706;2023-04-24T13:17:31;6.77;;;2.50;;
11034;SDS011;5571;48.110;-1.706;2023-04-24T13:19:58;8.93;;;2.80;;
11034;SDS011;5571;48.110;-1.706;2023-04-24T13:22:23;4.87;;;2.23;;
11034;SDS011;5571;48.110;-1.706;2023-04-24T13:24:49;10.43;;;2.80;;
11034;SDS011;5571;48.110;-1.706;2023-04-24T13:27:15;5.30;;;2.10;;
11034;SDS011;5571;48.110;-1.706;2023-04-24T13:29:41;4.57;;;2.40;;
11034;SDS011;5571;48.110;-1.706;2023-04-24T13:32:07;4.97;;;2.27;;
11034;SDS011;5571;48.110;-1.706;2023-04-24T13:34:33;7.50;;;2.40;;
11034;SDS011;5571;48.110;-1.706;2023-04-24T13:37:02;11.87;;;2.53;;
11034;SDS011;5571;48.110;-1.706;2023-04-24T13:39:31;7.27;;;2.50;;
11034;SDS011;5571;48.110;-1.706;2023-04-24T13:41:57;6.90;;;2.50;;
11034;SDS011;5571;48.110;-1.706;2023-04-24T13:44:23;7.03;;;2.30;;
11034;SDS011;5571;48.110;-1.706;2023-04-24T13:46:50;6.97;;;2.53;;
11034;SDS011;5571;48.110;-1.706;2023-04-24T13:49:19;5.10;;;2.20;;
11034;SDS011;5571;48.110;-1.706;2023-04-24T13:51:46;6.40;;;2.80;;
11034;SDS011;5571;48.110;-1.706;2023-04-24T13:54:12;8.87;;;2.60;;
11034;SDS011;5571;48.110;-1.706;2023-04-24T13:56:38;5.97;;;2.33;;
11034;SDS011;5571;48.110;-1.706;2023-04-24T13:59:05;9.80;;;2.50;;
11034;SDS011;5571;48.110;-1.706;2023-04-24T14:01:30;5.67;;;2.10;;
11034;SDS011;5571;48.110;-1.706;2023-04-24T14:03:56;7.23;;;2.73;;
11034;SDS011;5571;48.110;-1.706;2023-04-24T14:06:22;7.60;;;2.73;;
11034;SDS011;5571;48.110;-1.706;2023-04-24T14:08:48;9.23;;;2.60;;
11034;SDS011;5571;48.110;-1.706;2023-04-24T14:11:14;6.87;;;2.50;;
11034;SDS011;5571;48.110;-1.706;2023-04-24T14:13:40;9.13;;;2.40;;
11034;SDS011;5571;48.110;-1.706;2023-04-24T14:16:06;6.67;;;2.57;;
11034;SDS011;5571;48.110;-1.706;2023-04-24T14:18:32;7.40;;;2.63;;
11034;SDS011;5571;48.110;-1.706;2023-04-24T14:20:58;8.33;;;2.87;;
11034;SDS011;5571;48.110;-1.706;2023-04-24T14:23:26;9.50;;;2.70;;
11034;SDS011;5571;48.110;-1.706;2023-04-24T14:25:52;9.90;;;3.27;;
11034;SDS011;5571;48.110;-1.706;2023-04-24T14:28:18;10.60;;;3.03;;
11034;SDS011;5571;48.110;-1.706;2023-04-24T14:30:45;14.10;;;3.53;;
11034;SDS011;5571;48.110;-1.706;2023-04-24T14:33:11;10.53;;;3.40;;
11034;SDS011;5571;48.110;-1.706;2023-04-24T14:35:37;6.93;;;2.80;;
11034;SDS011;5571;48.110;-1.706;2023-04-24T14:38:03;9.70;;;3.13;;
11034;SDS011;5571;48.110;-1.706;2023-04-24T14:40:29;6.57;;;3.23;;
11034;SDS011;5571;48.110;-1.706;2023-04-24T14:42:56;7.63;;;3.30;;
11034;SDS011;5571;48.110;-1.706;2023-04-24T14:45:22;6.93;;;3.03;;
11034;SDS011;5571;48.110;-1.706;2023-04-24T14:47:48;10.13;;;2.97;;
11034;SDS011;5571;48.110;-1.706;2023-04-24T14:50:14;7.63;;;3.10;;
11034;SDS011;5571;48.110;-1.706;2023-04-24T14:52:40;6.30;;;2.70;;
11034;SDS011;5571;48.110;-1.706;2023-04-24T14:55:05;8.33;;;3.13;;
11034;SDS011;5571;48.110;-1.706;2023-04-24T14:57:34;5.07;;;2.73;;
11034;SDS011;5571;48.110;-1.706;2023-04-24T15:00:01;8.37;;;2.87;;
11034;SDS011;5571;48.110;-1.706;2023-04-24T15:02:28;7.03;;;2.80;;
11034;SDS011;5571;48.110;-1.706;2023-04-24T15:04:54;6.03;;;2.73;;
11034;SDS011;5571;48.110;-1.706;2023-04-24T15:07:19;12.23;;;3.60;;
11034;SDS011;5571;48.110;-1.706;2023-04-24T15:09:45;9.63;;;3.30;;